Time;durP1;ratioP1;P1;durP2;ratioP2;P2;SDS_P1;SDS_P2;PMS_P1;PMS_P2;Temp;Humidity;BMP_temperature;BMP_pressure;BME280_temperature;BME280_humidity;BME280_pressure;Samples;Min_cycle;Max_cycle;Signal;HPM_P1;HPM_P2
2024/01/26 00:00:40;;;;;;;4.10;1.60;;;;;;;4.53;100.00;101590.25;5050623;28;20036;-68
2024/01/26 00:03:06;;;;;;;4.30;1.50;;;;;;;4.50;100.00;101585.25;5056794;28;20027;-69
2024/01/26 00:05:31;;;;;;;7.20;2.20;;;;;;;4.48;100.00;101589.66;5055821;28;20457;-69
2024/01/26 00:07:57;;;;;;;4.40;1.65;;;;;;;4.39;100.00;101588.38;5053718;28;20025;-68
2024/01/26 00:10:22;;;;;;;5.35;1.55;;;;;;;4.45;100.00;101582.06;5052829;28;20395;-69
2024/01/26 00:12:48;;;;;;;5.68;1.65;;;;;;;4.54;100.00;101569.53;5053523;28;20033;-69
2024/01/26 00:15:14;;;;;;;3.08;1.40;;;;;;;4.69;100.00;101567.91;5051824;28;20051;-68
2024/01/26 00:17:40;;;;;;;5.53;1.40;;;;;;;4.62;99.32;101564.81;5051609;28;20605;-69
2024/01/26 00:20:06;;;;;;;5.88;2.75;;;;;;;4.38;100.00;101565.22;5058268;28;20095;-68
2024/01/26 00:22:31;;;;;;;12.63;5.45;;;;;;;4.09;100.00;101564.94;5056898;28;20082;-69
2024/01/26 00:24:57;;;;;;;11.98;5.28;;;;;;;3.83;100.00;101567.97;5052190;28;20036;-69
2024/01/26 00:27:22;;;;;;;14.00;7.90;;;;;;;3.49;100.00;101574.75;5048434;28;20029;-69
2024/01/26 00:29:48;;;;;;;14.10;7.85;;;;;;;3.21;100.00;101570.06;5048137;28;21249;-69
2024/01/26 00:32:13;;;;;;;16.02;7.63;;;;;;;3.05;100.00;101558.78;5052274;28;20036;-69
2024/01/26 00:34:39;;;;;;;17.15;8.57;;;;;;;3.01;100.00;101557.25;5049347;28;20108;-69
2024/01/26 00:37:04;;;;;;;18.27;8.27;;;;;;;2.92;100.00;101571.38;5053768;28;20021;-69
2024/01/26 00:39:29;;;;;;;17.25;8.07;;;;;;;2.78;100.00;101565.19;5052438;28;20037;-69
2024/01/26 00:41:55;;;;;;;18.90;8.70;;;;;;;2.69;100.00;101571.56;5051443;28;20025;-69
2024/01/26 00:44:20;;;;;;;17.50;8.55;;;;;;;2.62;100.00;101570.16;5048931;28;20025;-69
2024/01/26 00:46:46;;;;;;;17.58;5.88;;;;;;;2.67;100.00;101570.78;5047502;28;20049;-68
2024/01/26 00:49:11;;;;;;;12.35;6.18;;;;;;;2.95;100.00;101566.06;5056216;28;20028;-69
2024/01/26 00:51:37;;;;;;;6.15;1.95;;;;;;;3.61;100.00;101575.91;5057763;28;20695;-68
2024/01/26 00:54:02;;;;;;;4.85;1.67;;;;;;;4.21;100.00;101569.50;5055878;28;20151;-68
2024/01/26 00:56:28;;;;;;;5.97;1.98;;;;;;;4.42;100.00;101577.06;5056970;28;20032;-69
2024/01/26 00:58:53;;;;;;;2.03;1.02;;;;;;;4.45;100.00;101574.31;5050289;28;20045;-69
2024/01/26 01:01:19;;;;;;;5.13;0.98;;;;;;;4.61;100.00;101567.47;5051974;28;20464;-69
2024/01/26 01:03:45;;;;;;;2.35;1.35;;;;;;;4.68;100.00;101566.22;5045099;28;20536;-68
2024/01/26 01:06:11;;;;;;;5.40;1.88;;;;;;;4.74;99.82;101567.63;5050396;28;20025;-68
2024/01/26 01:08:36;;;;;;;6.03;1.55;;;;;;;4.67;100.00;101569.72;5052897;28;20063;-68
2024/01/26 01:11:02;;;;;;;3.92;1.42;;;;;;;4.53;100.00;101574.75;5049963;28;20108;-69
2024/01/26 01:13:28;;;;;;;4.38;1.13;;;;;;;4.42;100.00;101566.72;5054575;28;20060;-68
2024/01/26 01:15:53;;;;;;;3.95;1.50;;;;;;;4.31;100.00;101567.28;5053237;28;20507;-68
2024/01/26 01:18:20;;;;;;;6.90;2.28;;;;;;;4.19;100.00;101573.06;5048595;28;20120;-68
2024/01/26 01:20:46;;;;;;;6.35;2.47;;;;;;;4.15;100.00;101574.97;5053904;28;20503;-68
2024/01/26 01:23:11;;;;;;;7.30;2.55;;;;;;;4.21;100.00;101579.81;5050357;28;20020;-69
2024/01/26 01:25:37;;;;;;;3.97;1.40;;;;;;;4.24;100.00;101569.34;5050865;28;20218;-68
2024/01/26 01:28:03;;;;;;;5.13;1.80;;;;;;;4.36;100.00;101575.63;5063821;28;20431;-69
2024/01/26 01:30:28;;;;;;;6.05;1.63;;;;;;;4.44;100.00;101580.38;5057837;28;20044;-68
2024/01/26 01:32:54;;;;;;;4.15;1.63;;;;;;;4.43;100.00;101573.56;5055427;28;20095;-68
2024/01/26 01:35:20;;;;;;;2.90;1.58;;;;;;;4.42;100.00;101577.88;5053828;28;20033;-68
2024/01/26 01:37:45;;;;;;;5.88;1.58;;;;;;;4.45;100.00;101569.16;5051099;28;20044;-68
2024/01/26 01:40:11;;;;;;;4.50;1.55;;;;;;;4.45;100.00;101564.00;5052261;28;20025;-69
2024/01/26 01:42:36;;;;;;;5.25;1.35;;;;;;;4.44;100.00;101554.59;5044715;28;20477;-69
2024/01/26 01:45:12;;;;;;;3.13;1.73;;;;;;;4.42;100.00;101559.81;5053020;28;20072;-69
2024/01/26 01:47:37;;;;;;;5.28;1.05;;;;;;;4.40;100.00;101559.06;5051341;28;20029;-69
2024/01/26 01:50:03;;;;;;;5.13;1.58;;;;;;;4.43;100.00;101563.25;5050834;28;20479;-69
2024/01/26 01:52:29;;;;;;;4.72;1.52;;;;;;;4.51;100.00;101558.53;5049663;28;20083;-69
2024/01/26 01:54:57;;;;;;;3.17;1.20;;;;;;;4.55;100.00;101547.97;5050160;28;20083;-69
2024/01/26 01:57:25;;;;;;;1.48;0.68;;;;;;;4.62;100.00;101551.06;5051759;28;20036;-69
2024/01/26 01:59:51;;;;;;;4.20;1.35;;;;;;;4.61;100.00;101541.66;5050016;28;20471;-68
2024/01/26 02:02:16;;;;;;;2.30;1.10;;;;;;;4.64;99.97;101544.91;5051456;28;20079;-68
2024/01/26 02:04:42;;;;;;;4.03;0.98;;;;;;;4.60;99.43;101540.00;5050437;28;20032;-68
2024/01/26 02:07:08;;;;;;;2.72;1.25;;;;;;;4.56;100.00;101525.56;5051793;28;20040;-68
2024/01/26 02:09:33;;;;;;;2.65;1.17;;;;;;;4.55;100.00;101531.66;5051247;28;20485;-69
2024/01/26 02:12:01;;;;;;;2.05;0.90;;;;;;;4.55;99.55;101541.97;5052130;28;20037;-68
2024/01/26 02:14:27;;;;;;;3.28;1.35;;;;;;;4.49;100.00;101548.28;5052378;28;20036;-69
2024/01/26 02:16:56;;;;;;;3.15;1.23;;;;;;;4.44;100.00;101544.25;5053396;28;20033;-68
2024/01/26 02:19:23;;;;;;;5.10;1.27;;;;;;;4.45;100.00;101551.09;5049906;28;20033;-69
2024/01/26 02:21:49;;;;;;;2.20;0.60;;;;;;;4.61;99.15;101550.22;5052241;28;20091;-68
2024/01/26 02:24:15;;;;;;;2.05;0.88;;;;;;;4.63;98.65;101545.00;5053499;28;20029;-69
2024/01/26 02:26:41;;;;;;;2.25;0.63;;;;;;;4.59;98.53;101548.63;5052389;28;20025;-68
2024/01/26 02:29:06;;;;;;;4.30;0.82;;;;;;;4.58;98.80;101540.06;5053659;28;20047;-69
2024/01/26 02:31:32;;;;;;;1.85;0.88;;;;;;;4.54;99.03;101540.31;5054779;28;20044;-69
2024/01/26 02:33:58;;;;;;;1.98;0.80;;;;;;;4.58;98.65;101541.81;5056612;28;20057;-69
2024/01/26 02:36:23;;;;;;;6.43;1.30;;;;;;;4.59;98.58;101541.72;5059070;28;20372;-68
2024/01/26 02:38:48;;;;;;;3.53;1.00;;;;;;;4.57;98.40;101545.31;5055760;28;20036;-69
2024/01/26 02:41:14;;;;;;;4.70;0.70;;;;;;;4.56;98.14;101536.72;5058437;28;20677;-68
2024/01/26 02:43:39;;;;;;;5.50;1.00;;;;;;;4.66;97.48;101544.84;5056804;28;20025;-69
2024/01/26 02:46:11;;;;;;;2.17;0.88;;;;;;;4.73;96.37;101542.72;5060890;28;20024;-69
2024/01/26 02:48:38;;;;;;;2.90;0.88;;;;;;;4.77;96.39;101537.31;5058806;28;20119;-68
2024/01/26 02:51:04;;;;;;;2.22;0.50;;;;;;;4.66;96.65;101547.41;5058777;28;20505;-68
2024/01/26 02:53:29;;;;;;;2.92;0.90;;;;;;;4.60;96.27;101551.16;5052085;28;20033;-69
2024/01/26 02:55:55;;;;;;;4.60;0.88;;;;;;;4.48;97.64;101548.34;5061081;28;20099;-68
2024/01/26 02:58:21;;;;;;;3.55;0.73;;;;;;;4.34;98.13;101549.88;5055294;28;20064;-68
2024/01/26 03:00:46;;;;;;;2.08;0.95;;;;;;;4.27;99.49;101543.38;5049238;28;20453;-69
2024/01/26 03:03:12;;;;;;;2.55;1.10;;;;;;;4.19;100.00;101534.38;5059759;28;20045;-69
2024/01/26 03:05:37;;;;;;;3.13;1.08;;;;;;;4.19;100.00;101537.78;5053547;28;20507;-68
2024/01/26 03:08:03;;;;;;;4.22;1.05;;;;;;;4.18;100.00;101541.28;5056374;28;20373;-68
2024/01/26 03:10:28;;;;;;;2.70;0.95;;;;;;;4.31;99.91;101534.56;5054944;28;20071;-68
2024/01/26 03:12:55;;;;;;;3.25;1.17;;;;;;;4.40;99.00;101542.75;5053265;28;20074;-69
2024/01/26 03:15:20;;;;;;;5.63;0.60;;;;;;;4.43;98.63;101547.75;5050422;28;20052;-69
2024/01/26 03:17:47;;;;;;;7.20;0.80;;;;;;;4.41;98.91;101545.25;5050068;28;20033;-68
2024/01/26 03:20:13;;;;;;;2.95;0.60;;;;;;;4.37;98.58;101541.16;5049707;28;20124;-68
2024/01/26 03:22:38;;;;;;;4.10;1.40;;;;;;;4.30;99.16;101547.53;5048329;28;20106;-69
2024/01/26 03:25:04;;;;;;;4.28;1.85;;;;;;;4.01;99.24;101556.75;5051179;28;20028;-69
2024/01/26 03:27:29;;;;;;;5.07;1.63;;;;;;;3.67;100.00;101548.09;5051472;28;20393;-68
2024/01/26 03:29:55;;;;;;;4.78;2.60;;;;;;;3.30;100.00;101554.19;5052265;28;20111;-68
2024/01/26 03:32:20;;;;;;;6.07;2.10;;;;;;;3.10;100.00;101556.84;5051130;28;20384;-69
2024/01/26 03:34:46;;;;;;;4.95;2.22;;;;;;;2.93;100.00;101560.16;5052099;28;20039;-69
2024/01/26 03:37:11;;;;;;;6.47;2.80;;;;;;;2.83;100.00;101558.94;5056256;28;20025;-69
2024/01/26 03:39:37;;;;;;;6.15;4.13;;;;;;;2.78;100.00;101558.28;5052643;28;20048;-69
2024/01/26 03:42:03;;;;;;;7.20;3.90;;;;;;;2.88;100.00;101562.09;5052244;28;20066;-69
2024/01/26 03:44:29;;;;;;;6.32;2.60;;;;;;;3.14;100.00;101557.53;5053833;28;20052;-68
2024/01/26 03:46:54;;;;;;;3.65;1.48;;;;;;;3.40;100.00;101569.19;5049273;28;20461;-69
2024/01/26 03:49:20;;;;;;;5.28;1.10;;;;;;;3.60;100.00;101569.94;5049775;28;20039;-69
2024/01/26 03:51:45;;;;;;;2.90;0.73;;;;;;;3.83;100.00;101566.22;5055894;28;20040;-69
2024/01/26 03:54:10;;;;;;;3.97;0.80;;;;;;;4.00;100.00;101566.25;5058422;28;20536;-68
2024/01/26 03:56:36;;;;;;;3.60;0.80;;;;;;;4.14;100.00;101557.81;5051569;28;20032;-69
2024/01/26 03:59:01;;;;;;;1.73;0.57;;;;;;;4.16;100.00;101566.31;5050298;28;20123;-69
2024/01/26 04:01:27;;;;;;;2.20;0.68;;;;;;;4.20;100.00;101567.84;5054558;28;20033;-68
2024/01/26 04:03:52;;;;;;;3.50;1.02;;;;;;;4.20;100.00;101573.00;5054518;28;20028;-69
2024/01/26 04:06:18;;;;;;;5.00;1.20;;;;;;;4.20;100.00;101570.41;5058386;28;20413;-69
2024/01/26 04:08:44;;;;;;;1.90;0.50;;;;;;;4.19;100.00;101578.22;5047389;28;20067;-69
2024/01/26 04:11:09;;;;;;;2.50;0.68;;;;;;;4.18;100.00;101579.13;5055154;28;20028;-69
2024/01/26 04:13:34;;;;;;;2.20;0.80;;;;;;;4.12;100.00;101580.28;5056699;28;20037;-69
2024/01/26 04:16:00;;;;;;;2.58;1.00;;;;;;;4.05;100.00;101576.34;5052725;28;20032;-68
2024/01/26 04:18:25;;;;;;;1.35;0.50;;;;;;;3.99;100.00;101574.06;5048234;28;20029;-69
2024/01/26 04:20:51;;;;;;;2.92;1.17;;;;;;;4.06;100.00;101572.00;5048033;28;20051;-69
2024/01/26 04:23:16;;;;;;;4.50;1.05;;;;;;;4.09;99.95;101572.69;5048720;28;20029;-69
2024/01/26 04:25:42;;;;;;;3.03;0.80;;;;;;;4.06;100.00;101580.56;5048573;28;20037;-69
2024/01/26 04:28:07;;;;;;;5.93;1.33;;;;;;;4.12;99.33;101577.69;5050158;28;20039;-69
2024/01/26 04:30:34;;;;;;;2.50;1.05;;;;;;;4.07;99.77;101571.94;5050083;28;20033;-68
2024/01/26 04:33:00;;;;;;;1.88;0.68;;;;;;;4.03;100.00;101585.88;5050824;28;20072;-69
2024/01/26 04:35:26;;;;;;;6.18;0.60;;;;;;;3.94;100.00;101589.75;5052759;28;20106;-69
2024/01/26 04:37:52;;;;;;;5.72;1.48;;;;;;;3.81;100.00;101580.09;5050392;28;20469;-69
2024/01/26 04:40:18;;;;;;;6.25;2.08;;;;;;;3.70;100.00;101580.63;5048411;28;20051;-69
2024/01/26 04:42:43;;;;;;;2.97;0.95;;;;;;;3.69;100.00;101583.28;5051663;28;20037;-68
2024/01/26 04:45:09;;;;;;;1.92;0.73;;;;;;;3.78;100.00;101575.13;5055511;28;20021;-69
2024/01/26 04:47:35;;;;;;;3.92;1.63;;;;;;;3.65;100.00;101590.31;5047236;28;20032;-68
2024/01/26 04:50:00;;;;;;;5.70;1.95;;;;;;;3.50;100.00;101591.88;5053794;28;20040;-69
2024/01/26 04:52:26;;;;;;;4.03;1.27;;;;;;;3.47;100.00;101599.75;5053251;28;20121;-69
2024/01/26 04:54:52;;;;;;;2.80;1.02;;;;;;;3.55;100.00;101601.97;5052528;28;20021;-69
2024/01/26 04:57:18;;;;;;;3.88;0.60;;;;;;;3.61;100.00;101605.09;5046126;28;20044;-68
2024/01/26 04:59:43;;;;;;;2.33;0.60;;;;;;;3.66;100.00;101603.13;5047266;28;20400;-68
2024/01/26 05:02:09;;;;;;;4.80;0.60;;;;;;;3.81;100.00;101606.72;5048843;28;20033;-69
2024/01/26 05:04:34;;;;;;;3.17;0.90;;;;;;;3.84;100.00;101603.97;5047760;28;20025;-68
2024/01/26 05:06:59;;;;;;;4.85;0.85;;;;;;;3.81;100.00;101611.03;5050478;28;20365;-68
2024/01/26 05:09:25;;;;;;;2.80;0.82;;;;;;;3.80;100.00;101609.34;5051025;28;20032;-68
2024/01/26 05:11:51;;;;;;;5.28;0.68;;;;;;;3.77;100.00;101610.38;5048555;28;20063;-69
2024/01/26 05:14:17;;;;;;;1.50;0.50;;;;;;;3.80;100.00;101609.34;5056751;28;20032;-69
2024/01/26 05:16:43;;;;;;;1.23;0.63;;;;;;;3.82;100.00;101608.38;5052699;28;20109;-69
2024/01/26 05:19:08;;;;;;;8.43;1.08;;;;;;;3.80;100.00;101617.09;5049040;28;20098;-69
2024/01/26 05:21:34;;;;;;;3.00;1.15;;;;;;;3.82;100.00;101610.94;5047620;28;20338;-69
2024/01/26 05:23:59;;;;;;;6.90;0.93;;;;;;;3.94;99.52;101630.16;5047853;28;20028;-68
2024/01/26 05:26:25;;;;;;;2.53;0.80;;;;;;;3.98;98.52;101623.94;5047449;28;20029;-68
2024/01/26 05:28:51;;;;;;;4.10;0.70;;;;;;;3.84;99.06;101631.50;5049398;28;20036;-69
2024/01/26 05:31:16;;;;;;;3.97;1.77;;;;;;;3.53;99.70;101642.44;5047295;28;20049;-69
2024/01/26 05:33:41;;;;;;;4.65;2.63;;;;;;;3.13;100.00;101651.13;5044808;28;20087;-69
2024/01/26 05:36:07;;;;;;;6.50;2.25;;;;;;;2.82;100.00;101656.81;5051744;28;20091;-69
2024/01/26 05:38:33;;;;;;;8.85;3.03;;;;;;;2.74;100.00;101649.41;5050493;28;20067;-68
2024/01/26 05:40:58;;;;;;;4.20;1.88;;;;;;;2.91;100.00;101662.38;5052313;28;20029;-68
2024/01/26 05:43:23;;;;;;;5.95;2.03;;;;;;;2.96;100.00;101657.84;5054936;28;20078;-68
2024/01/26 05:45:49;;;;;;;7.45;2.30;;;;;;;2.85;100.00;101659.22;5049694;28;20090;-69
2024/01/26 05:48:14;;;;;;;5.97;2.33;;;;;;;2.88;100.00;101659.94;5055463;28;20441;-68
2024/01/26 05:50:40;;;;;;;6.40;3.53;;;;;;;2.90;100.00;101663.28;5054700;28;20042;-68
2024/01/26 05:53:07;;;;;;;8.57;3.42;;;;;;;2.76;100.00;101668.19;5057405;28;20033;-69
2024/01/26 05:55:32;;;;;;;3.42;1.35;;;;;;;2.96;100.00;101673.31;5049093;28;20029;-69
2024/01/26 05:57:58;;;;;;;5.50;1.55;;;;;;;3.16;100.00;101675.03;5055854;28;20384;-69
2024/01/26 06:00:23;;;;;;;5.80;1.33;;;;;;;3.32;100.00;101670.00;5051183;28;20044;-68
2024/01/26 06:02:49;;;;;;;4.18;1.27;;;;;;;3.42;100.00;101667.84;5046854;28;20524;-69
2024/01/26 06:05:14;;;;;;;2.53;0.80;;;;;;;3.49;100.00;101667.50;5047546;28;20037;-68
2024/01/26 06:07:40;;;;;;;1.65;0.77;;;;;;;3.51;100.00;101670.00;5046771;28;20033;-69
2024/01/26 06:10:06;;;;;;;5.88;1.10;;;;;;;3.50;100.00;101671.75;5057550;28;20086;-69
2024/01/26 06:12:31;;;;;;;2.42;0.80;;;;;;;3.51;100.00;101673.44;5059615;28;20075;-69
2024/01/26 06:14:57;;;;;;;6.85;1.13;;;;;;;3.49;100.00;101670.06;5056045;28;20044;-69
2024/01/26 06:17:22;;;;;;;2.25;0.88;;;;;;;3.53;100.00;101679.34;5055824;28;20041;-69
2024/01/26 06:19:48;;;;;;;5.47;1.20;;;;;;;3.52;100.00;101671.69;5054448;28;20024;-68
2024/01/26 06:22:13;;;;;;;4.50;1.55;;;;;;;3.47;100.00;101673.63;5058404;28;20033;-69
2024/01/26 06:24:39;;;;;;;2.80;1.23;;;;;;;3.47;100.00;101674.47;5054492;28;20039;-68
2024/01/26 06:27:04;;;;;;;2.42;0.73;;;;;;;3.54;100.00;101672.44;5059924;28;20033;-68
2024/01/26 06:29:30;;;;;;;2.45;0.70;;;;;;;3.53;100.00;101679.34;5051885;28;20396;-69
2024/01/26 06:31:59;;;;;;;3.78;0.73;;;;;;;3.54;100.00;101681.00;5051013;28;20140;-69
2024/01/26 06:34:24;;;;;;;3.75;0.77;;;;;;;3.57;100.00;101680.03;5051281;28;20126;-69
2024/01/26 06:36:50;;;;;;;2.78;1.00;;;;;;;3.54;100.00;101675.88;5048939;28;20025;-69
2024/01/26 06:39:15;;;;;;;2.03;0.63;;;;;;;3.51;100.00;101681.16;5054512;28;20037;-69
2024/01/26 06:41:42;;;;;;;1.92;0.60;;;;;;;3.50;100.00;101678.66;5050221;28;20033;-68
2024/01/26 06:44:07;;;;;;;1.83;0.50;;;;;;;3.49;100.00;101677.81;5057105;28;20167;-68
2024/01/26 06:46:33;;;;;;;4.97;1.08;;;;;;;3.51;100.00;101686.31;5055224;28;20040;-69
2024/01/26 06:48:58;;;;;;;8.05;2.17;;;;;;;3.49;100.00;101688.13;5052597;28;20029;-69
2024/01/26 06:51:24;;;;;;;6.97;2.47;;;;;;;3.50;100.00;101694.09;5051509;28;20029;-69
2024/01/26 06:53:49;;;;;;;4.32;1.45;;;;;;;3.49;100.00;101695.84;5049810;28;20380;-69
2024/01/26 06:56:15;;;;;;;5.10;0.90;;;;;;;3.48;100.00;101701.06;5049677;28;20555;-68
2024/01/26 06:58:40;;;;;;;4.05;0.95;;;;;;;3.48;100.00;101712.22;5049227;28;20032;-69
2024/01/26 07:01:06;;;;;;;3.60;0.90;;;;;;;3.52;100.00;101708.59;5046010;28;20039;-69
2024/01/26 07:03:31;;;;;;;2.75;0.95;;;;;;;3.55;100.00;101713.63;5049653;28;20061;-68
2024/01/26 07:05:57;;;;;;;2.83;0.85;;;;;;;3.56;100.00;101699.81;5050632;28;20021;-69
2024/01/26 07:08:22;;;;;;;2.58;1.08;;;;;;;3.60;99.90;101711.66;5050709;28;20028;-69
2024/01/26 07:10:47;;;;;;;3.78;1.23;;;;;;;3.61;99.95;101705.59;5050280;28;20048;-68
2024/01/26 07:13:13;;;;;;;6.28;2.20;;;;;;;3.63;99.37;101708.94;5051332;28;20029;-69
2024/01/26 07:15:38;;;;;;;4.20;1.67;;;;;;;3.61;99.45;101713.34;5048982;28;20097;-68
2024/01/26 07:18:04;;;;;;;4.10;1.85;;;;;;;3.59;99.59;101715.16;5049990;28;20028;-68
2024/01/26 07:20:29;;;;;;;5.80;1.40;;;;;;;3.62;99.15;101715.00;5048991;28;20041;-68
2024/01/26 07:22:55;;;;;;;5.82;1.88;;;;;;;3.70;98.91;101716.41;5045834;28;20059;-68
2024/01/26 07:25:21;;;;;;;8.27;1.70;;;;;;;3.73;98.84;101718.84;5049027;28;20069;-69
2024/01/26 07:27:47;;;;;;;6.00;1.70;;;;;;;3.77;98.32;101717.81;5052706;28;20032;-69
2024/01/26 07:30:13;;;;;;;15.23;1.38;;;;;;;3.81;98.14;101719.31;5054713;28;20033;-68
2024/01/26 07:32:40;;;;;;;4.25;1.35;;;;;;;3.84;98.42;101726.91;5052923;28;20045;-68
2024/01/26 07:35:06;;;;;;;4.05;1.33;;;;;;;3.86;98.28;101723.34;5053211;28;20107;-68
2024/01/26 07:37:32;;;;;;;5.45;1.63;;;;;;;3.95;97.48;101722.09;5046362;28;20404;-68
2024/01/26 07:39:58;;;;;;;4.28;1.23;;;;;;;4.00;97.08;101725.28;5050047;28;20029;-68
2024/01/26 07:42:23;;;;;;;5.28;1.27;;;;;;;4.05;96.94;101733.66;5050875;28;20045;-68
2024/01/26 07:44:49;;;;;;;5.47;1.50;;;;;;;4.13;96.55;101731.56;5052352;28;20435;-68
2024/01/26 07:47:14;;;;;;;2.53;0.70;;;;;;;4.14;96.27;101733.22;5053098;28;20052;-68
2024/01/26 07:49:40;;;;;;;2.17;0.95;;;;;;;4.22;96.33;101731.13;5049663;28;20473;-68
2024/01/26 07:52:05;;;;;;;2.25;0.82;;;;;;;4.29;95.45;101734.22;5050921;28;20476;-68
2024/01/26 07:54:31;;;;;;;1.90;0.80;;;;;;;4.36;95.11;101729.59;5049735;28;20087;-69
2024/01/26 07:56:56;;;;;;;2.78;1.00;;;;;;;4.48;94.04;101734.16;5056879;28;20037;-69
2024/01/26 07:59:21;;;;;;;3.22;1.25;;;;;;;4.59;93.97;101734.50;5056047;28;20047;-69
2024/01/26 08:01:47;;;;;;;1.85;0.82;;;;;;;4.67;92.79;101732.38;5055439;28;20124;-69
2024/01/26 08:04:12;;;;;;;1.70;0.70;;;;;;;4.72;92.98;101722.66;5053371;28;20079;-69
2024/01/26 08:06:37;;;;;;;4.25;0.60;;;;;;;4.79;91.67;101721.41;5057268;28;20372;-69
2024/01/26 08:09:04;;;;;;;2.97;0.45;;;;;;;4.85;91.82;101728.00;5053668;28;20120;-68
2024/01/26 08:11:30;;;;;;;1.90;0.47;;;;;;;4.89;91.50;101729.53;5056249;28;20037;-67
2024/01/26 08:13:55;;;;;;;5.80;0.70;;;;;;;4.92;91.34;101726.78;5049880;28;20436;-68
2024/01/26 08:16:21;;;;;;;6.05;1.15;;;;;;;4.97;91.45;101735.16;5049255;28;20060;-67
2024/01/26 08:18:46;;;;;;;5.57;0.60;;;;;;;4.98;90.40;101742.81;5048437;28;26364;-68
2024/01/26 08:21:12;;;;;;;2.15;0.55;;;;;;;5.02;90.96;101742.66;5048616;28;20029;-68
2024/01/26 08:23:37;;;;;;;2.33;0.55;;;;;;;5.04;90.26;101743.44;5053828;28;20082;-68
2024/01/26 08:26:03;;;;;;;3.25;0.60;;;;;;;5.11;90.07;101745.63;5057497;28;20047;-68
2024/01/26 08:28:29;;;;;;;4.35;0.70;;;;;;;5.17;90.21;101754.81;5056146;28;20043;-68
2024/01/26 08:30:54;;;;;;;2.67;0.93;;;;;;;5.24;89.79;101743.22;5053984;28;20036;-67
2024/01/26 08:33:19;;;;;;;4.68;0.93;;;;;;;5.31;89.83;101760.09;5058204;28;20048;-68
2024/01/26 08:35:45;;;;;;;4.00;0.98;;;;;;;5.36;89.41;101752.94;5046705;28;20033;-67
2024/01/26 08:38:10;;;;;;;2.15;0.80;;;;;;;5.39;89.41;101762.28;5045126;28;20041;-67
2024/01/26 08:40:36;;;;;;;2.90;1.17;;;;;;;5.45;89.68;101760.22;5058054;28;20384;-68
2024/01/26 08:43:02;;;;;;;5.03;0.70;;;;;;;5.56;89.09;101770.84;5056593;28;20028;-68
2024/01/26 08:45:27;;;;;;;4.70;0.68;;;;;;;5.65;88.94;101770.34;5057931;28;20483;-68
2024/01/26 08:47:53;;;;;;;2.63;0.73;;;;;;;5.79;87.87;101766.16;5047419;28;20037;-67
2024/01/26 08:50:19;;;;;;;3.85;0.60;;;;;;;5.83;87.61;101775.44;5052961;28;20033;-68
2024/01/26 08:52:44;;;;;;;3.20;0.73;;;;;;;5.84;87.03;101771.94;5047984;28;20039;-68
2024/01/26 08:55:10;;;;;;;2.15;0.50;;;;;;;5.83;87.48;101778.03;5050635;28;20477;-67
2024/01/26 08:57:35;;;;;;;2.50;0.77;;;;;;;5.92;87.67;101773.22;5051789;28;20059;-68
2024/01/26 09:00:04;;;;;;;4.15;0.50;;;;;;;5.94;87.70;101765.38;5052599;28;20074;-67
2024/01/26 09:02:29;;;;;;;2.03;0.40;;;;;;;6.03;87.11;101759.72;5047511;28;20068;-68
2024/01/26 09:04:55;;;;;;;2.70;0.90;;;;;;;6.07;86.81;101758.63;5046971;28;20095;-67
2024/01/26 09:07:22;;;;;;;5.50;0.50;;;;;;;6.21;86.25;101757.84;5044607;28;20110;-68
2024/01/26 09:09:48;;;;;;;3.13;0.90;;;;;;;6.36;86.17;101751.00;5044485;28;20071;-67
2024/01/26 09:12:13;;;;;;;2.63;0.55;;;;;;;6.50;85.18;101757.06;5044568;28;20385;-67
2024/01/26 09:14:39;;;;;;;4.95;0.88;;;;;;;6.65;84.66;101757.94;5045370;28;20048;-67
2024/01/26 09:17:05;;;;;;;3.25;0.50;;;;;;;6.73;84.65;101767.84;5042360;28;20079;-72
2024/01/26 09:19:30;;;;;;;4.82;0.60;;;;;;;6.75;84.62;101774.63;5043509;28;20543;-68
2024/01/26 09:21:56;;;;;;;3.55;0.65;;;;;;;6.88;83.69;101770.41;5042075;28;20033;-68
2024/01/26 09:24:21;;;;;;;2.03;0.50;;;;;;;6.97;83.54;101774.22;5049408;28;20034;-68
2024/01/26 09:26:47;;;;;;;1.23;0.50;;;;;;;7.11;82.59;101781.16;5048540;28;20037;-69
2024/01/26 09:29:13;;;;;;;2.50;0.60;;;;;;;7.22;82.21;101769.25;5050157;28;20029;-68
2024/01/26 09:31:38;;;;;;;2.45;0.90;;;;;;;7.31;80.62;101778.22;5045063;28;20099;-68
2024/01/26 09:34:04;;;;;;;2.97;0.50;;;;;;;7.41;81.45;101789.72;5049721;28;20377;-68
2024/01/26 09:36:29;;;;;;;4.45;1.00;;;;;;;7.47;81.18;101789.34;5050033;28;20036;-67
2024/01/26 09:38:55;;;;;;;2.20;0.63;;;;;;;7.51;80.64;101790.00;5045842;28;20029;-68
2024/01/26 09:41:20;;;;;;;2.50;0.60;;;;;;;7.61;80.90;101776.38;5046415;28;20041;-67
2024/01/26 09:43:46;;;;;;;2.75;0.70;;;;;;;7.71;80.12;101773.22;5053659;28;20032;-68
2024/01/26 09:46:11;;;;;;;2.58;0.80;;;;;;;7.74;80.97;101767.84;5048725;28;20029;-68
2024/01/26 09:48:39;;;;;;;2.60;0.77;;;;;;;7.79;80.40;101765.78;5047229;28;20107;-68
2024/01/26 09:51:05;;;;;;;1.63;0.65;;;;;;;7.87;80.72;101774.78;5052917;28;20108;-68
2024/01/26 09:53:33;;;;;;;2.30;0.40;;;;;;;7.95;79.54;101772.53;5052387;28;20465;-67
2024/01/26 09:56:00;;;;;;;1.63;0.63;;;;;;;8.01;79.61;101766.13;5052952;28;20033;-68
2024/01/26 09:58:25;;;;;;;4.82;0.63;;;;;;;8.14;79.09;101759.22;5056350;28;20523;-69
2024/01/26 10:00:54;;;;;;;1.58;0.60;;;;;;;8.15;80.17;101755.69;5049430;28;20131;-68
2024/01/26 10:03:23;;;;;;;2.95;0.70;;;;;;;8.18;79.79;101752.91;5056105;28;20140;-67
2024/01/26 10:05:49;;;;;;;1.67;0.90;;;;;;;8.19;81.43;101744.19;5051380;28;20033;-68
2024/01/26 10:08:15;;;;;;;4.10;1.15;;;;;;;8.42;79.19;101744.50;5054095;28;20446;-69
2024/01/26 10:10:41;;;;;;;2.83;0.73;;;;;;;8.40;82.04;101749.81;5056915;28;20484;-67
2024/01/26 10:13:07;;;;;;;3.95;1.20;;;;;;;8.29;83.07;101747.03;5044051;28;20032;-67
2024/01/26 10:15:32;;;;;;;2.75;0.85;;;;;;;8.18;83.28;101762.44;5042622;28;20135;-67
2024/01/26 10:17:58;;;;;;;8.38;1.58;;;;;;;8.09;83.56;101758.66;5048764;28;20029;-67
2024/01/26 10:20:24;;;;;;;6.28;2.55;;;;;;;8.26;83.06;101758.44;5045294;28;20040;-67
2024/01/26 10:22:49;;;;;;;6.85;1.17;;;;;;;8.45;81.70;101763.31;5044198;28;20044;-68
2024/01/26 10:25:15;;;;;;;4.72;0.95;;;;;;;8.79;79.71;101767.13;5046931;28;20416;-67
2024/01/26 10:27:41;;;;;;;3.65;0.85;;;;;;;8.91;78.17;101766.34;5052172;28;20109;-68
2024/01/26 10:30:08;;;;;;;2.80;0.98;;;;;;;8.77;79.07;101762.97;5046479;28;20083;-67
2024/01/26 10:32:34;;;;;;;2.45;1.25;;;;;;;8.65;81.74;101765.44;5047910;28;20057;-68
2024/01/26 10:35:02;;;;;;;2.38;1.20;;;;;;;8.74;81.52;101761.41;5049913;28;20048;-67
2024/01/26 10:37:30;;;;;;;2.28;0.90;;;;;;;8.78;82.53;101749.03;5048027;28;20037;-69
2024/01/26 10:39:57;;;;;;;3.50;1.05;;;;;;;8.71;83.22;101742.59;5051434;28;20041;-68
2024/01/26 10:42:23;;;;;;;4.63;1.40;;;;;;;8.63;83.60;101738.72;5056642;28;20039;-68
2024/01/26 10:44:50;;;;;;;2.72;0.95;;;;;;;8.68;83.63;101738.44;5050629;28;20024;-68
2024/01/26 10:47:17;;;;;;;7.07;1.42;;;;;;;8.75;83.43;101739.69;5048953;28;20047;-68
2024/01/26 10:49:48;;;;;;;3.22;1.27;;;;;;;8.83;83.51;101737.41;5053694;28;20037;-68
2024/01/26 10:52:19;;;;;;;4.60;1.20;;;;;;;8.85;83.93;101740.75;5049609;28;20477;-68
2024/01/26 10:54:49;;;;;;;2.95;1.35;;;;;;;8.89;84.03;101739.59;5040749;28;20107;-67
2024/01/26 10:57:16;;;;;;;5.63;1.98;;;;;;;8.97;83.68;101728.69;5049898;28;20186;-68
2024/01/26 10:59:45;;;;;;;4.93;1.30;;;;;;;8.99;84.28;101730.22;5051427;28;20060;-67
2024/01/26 11:02:14;;;;;;;2.55;1.15;;;;;;;9.10;83.88;101733.88;5050075;28;20075;-67
2024/01/26 11:04:42;;;;;;;3.35;1.75;;;;;;;9.14;84.09;101725.78;5049359;28;20385;-67
2024/01/26 11:07:08;;;;;;;1.95;1.25;;;;;;;9.07;84.10;101721.09;5054816;28;20098;-68
2024/01/26 11:09:38;;;;;;;3.70;1.35;;;;;;;9.03;85.16;101717.03;5049615;28;20025;-67
2024/01/26 11:12:08;;;;;;;2.92;1.83;;;;;;;9.01;85.70;101706.72;5044510;28;20037;-67
2024/01/26 11:14:34;;;;;;;3.60;1.20;;;;;;;8.97;86.01;101703.53;5046396;28;20530;-67
2024/01/26 11:17:09;;;;;;;3.17;1.00;;;;;;;9.18;84.82;101695.19;5046746;28;20029;-67
2024/01/26 11:19:35;;;;;;;4.30;1.20;;;;;;;9.36;84.80;101698.28;5045373;28;20544;-67
2024/01/26 11:22:07;;;;;;;4.72;1.70;;;;;;;9.35;85.10;101694.03;5051607;28;20143;-68